createdAt,value
2023-05-19T00:00:40.699Z,27.17
2023-05-19T00:03:21.708Z,30.27
2023-05-19T00:05:50.495Z,26.48
2023-05-19T00:08:19.606Z,32.83
2023-05-19T00:10:48.049Z,33.03
2023-05-19T00:13:16.707Z,43.67
2023-05-19T00:15:46.801Z,43.33
2023-05-19T00:18:16.477Z,31.75
2023-05-19T00:20:44.633Z,38.95
2023-05-19T00:23:12.828Z,40.95
2023-05-19T00:25:40.894Z,27.17
2023-05-19T00:28:09.059Z,36.28
2023-05-19T00:30:37.312Z,41.75
2023-05-19T00:33:06.888Z,35.10
2023-05-19T00:35:35.007Z,35.80
2023-05-19T00:38:03.183Z,28.38
2023-05-19T00:40:31.919Z,38.33
2023-05-19T00:43:00.447Z,34.53
2023-05-19T00:45:28.895Z,39.28
2023-05-19T00:47:57.335Z,38.15
2023-05-19T00:50:27.356Z,35.63
2023-05-19T00:52:55.694Z,46.45
2023-05-19T00:55:24.773Z,39.72
2023-05-19T00:57:54.280Z,49.97
2023-05-19T01:03:25.540Z,49.40
2023-05-19T01:05:55.109Z,52.58
2023-05-19T01:08:23.289Z,39.35
2023-05-19T01:10:51.582Z,38.47
2023-05-19T01:13:19.521Z,38.72
2023-05-19T01:16:06.632Z,45.05
2023-05-19T01:18:48.582Z,38.33
2023-05-19T01:21:44.272Z,40.53
2023-05-19T01:24:25.400Z,43.08
2023-05-19T01:27:18.841Z,32.92
2023-05-19T01:30:01.452Z,42.80
2023-05-19T01:32:31.952Z,51.75
2023-05-19T01:35:00.170Z,44.65
2023-05-19T01:37:28.780Z,38.95
2023-05-19T01:39:56.855Z,35.97
2023-05-19T01:42:25.156Z,42.63
2023-05-19T01:44:53.882Z,41.88
2023-05-19T01:47:22.254Z,36.25
2023-05-19T01:49:51.634Z,39.55
2023-05-19T01:52:19.807Z,41.45
2023-05-19T01:54:47.737Z,33.75
2023-05-19T01:57:22.583Z,29.83
2023-05-19T01:59:54.954Z,31.85
2023-05-19T02:02:30.481Z,30.50
2023-05-19T02:05:03.798Z,23.80
2023-05-19T02:07:38.530Z,26.40
2023-05-19T02:10:07.907Z,36.10
2023-05-19T02:12:37.830Z,26.20
2023-05-19T02:15:08.253Z,29.60
2023-05-19T02:17:41.357Z,33.45
2023-05-19T02:20:11.783Z,34.33
2023-05-19T02:22:40.446Z,38.45
2023-05-19T02:25:09.124Z,43.90
2023-05-19T02:27:39.178Z,43.58
2023-05-19T02:30:09.314Z,47.80
2023-05-19T02:32:37.711Z,46.30
2023-05-19T02:35:06.709Z,43.83
2023-05-19T02:37:36.560Z,53.28
2023-05-19T02:40:05.508Z,41.33
2023-05-19T02:42:33.690Z,38.33
2023-05-19T02:45:01.661Z,45.80
2023-05-19T02:47:29.860Z,45.70
2023-05-19T02:49:57.812Z,41.88
2023-05-19T02:52:26.064Z,40.80
2023-05-19T02:54:55.500Z,47.60
2023-05-19T02:57:24.118Z,42.78
2023-05-19T02:59:52.101Z,41.33
2023-05-19T03:02:20.461Z,32.92
2023-05-19T03:04:48.414Z,36.78
2023-05-19T03:07:16.589Z,51.35
2023-05-19T03:09:44.495Z,45.75
2023-05-19T03:12:14.133Z,36.13
2023-05-19T03:14:42.301Z,38.85
2023-05-19T03:17:10.639Z,39.33
2023-05-19T03:19:38.620Z,44.05
2023-05-19T03:22:06.949Z,48.42
2023-05-19T03:24:35.096Z,47.58
2023-05-19T03:27:05.253Z,46.65
2023-05-19T03:29:34.537Z,45.85
2023-05-19T03:32:02.915Z,52.97
2023-05-19T03:34:32.604Z,67.38
2023-05-19T03:37:00.806Z,47.22
2023-05-19T03:39:28.715Z,54.10
2023-05-19T03:41:57.204Z,70.88
2023-05-19T03:44:25.307Z,64.18
2023-05-19T03:46:54.812Z,74.32
2023-05-19T03:49:22.741Z,65.63
2023-05-19T03:51:51.043Z,66.13
2023-05-19T03:54:19.012Z,64.43
2023-05-19T03:56:47.191Z,66.53
2023-05-19T03:59:16.113Z,67.70
2023-05-19T04:01:44.312Z,52.28
2023-05-19T04:04:13.667Z,62.13
2023-05-19T04:06:41.971Z,62.72
2023-05-19T04:09:13.770Z,53.88
2023-05-19T04:11:42.025Z,49.38
2023-05-19T04:14:10.444Z,61.58
2023-05-19T04:16:38.877Z,61.80
2023-05-19T04:19:06.869Z,61.95
2023-05-19T04:21:36.578Z,57.63
2023-05-19T04:24:06.230Z,44.72
2023-05-19T04:26:34.632Z,54.40
2023-05-19T04:29:04.354Z,49.67
2023-05-19T04:31:34.314Z,51.60
2023-05-19T04:34:02.792Z,43.38
2023-05-19T04:36:31.208Z,41.97
2023-05-19T04:39:07.005Z,51.10
2023-05-19T04:41:35.616Z,37.05
2023-05-19T04:44:03.878Z,39.47
2023-05-19T04:46:32.230Z,51.55
2023-05-19T04:49:01.247Z,56.67
2023-05-19T04:51:31.254Z,53.30
2023-05-19T04:54:01.470Z,37.47
2023-05-19T04:56:30.041Z,40.83
2023-05-19T04:58:58.009Z,45.15
2023-05-19T05:01:26.575Z,43.70
2023-05-19T05:03:56.017Z,39.70
2023-05-19T05:06:24.259Z,49.55
2023-05-19T05:08:52.555Z,46.25
2023-05-19T05:11:22.642Z,42.83
2023-05-19T05:13:50.990Z,31.23
2023-05-19T05:16:19.680Z,33.70
2023-05-19T05:18:48.223Z,31.20
2023-05-19T05:21:16.912Z,28.25
2023-05-19T05:23:45.404Z,29.52
2023-05-19T05:26:19.281Z,30.77
2023-05-19T05:28:48.538Z,33.83
2023-05-19T05:31:17.018Z,23.50
2023-05-19T05:33:45.032Z,24.40
2023-05-19T05:36:13.682Z,25.48
2023-05-19T05:38:44.161Z,25.58
2023-05-19T05:41:12.350Z,26.80
2023-05-19T05:43:40.388Z,24.98
2023-05-19T05:46:10.005Z,28.58
2023-05-19T05:48:38.646Z,25.98
2023-05-19T05:51:07.836Z,20.30
2023-05-19T05:53:40.483Z,22.00
2023-05-19T05:56:10.090Z,24.38
2023-05-19T05:58:40.597Z,23.88
2023-05-19T06:01:11.371Z,18.65
2023-05-19T06:03:41.595Z,23.42
2023-05-19T06:06:09.886Z,18.77
2023-05-19T06:08:37.923Z,16.40
2023-05-19T06:11:08.771Z,17.50
2023-05-19T06:13:37.035Z,20.23
2023-05-19T06:16:06.152Z,17.25
2023-05-19T06:18:35.595Z,16.75
2023-05-19T06:21:04.243Z,15.68
2023-05-19T06:23:32.247Z,15.13
2023-05-19T06:26:00.531Z,20.58
2023-05-19T06:28:28.501Z,18.83
2023-05-19T06:30:56.720Z,16.38
2023-05-19T06:33:26.153Z,17.83
2023-05-19T06:35:57.719Z,19.92
2023-05-19T06:38:25.738Z,17.00
2023-05-19T06:40:53.923Z,15.25
2023-05-19T06:43:21.931Z,20.27
2023-05-19T06:45:50.135Z,20.85
2023-05-19T06:48:18.156Z,26.48
2023-05-19T06:50:46.372Z,20.13
2023-05-19T06:53:15.769Z,20.05
2023-05-19T06:55:57.555Z,16.70
2023-05-19T06:58:27.789Z,17.40
2023-05-19T07:00:56.036Z,19.25
2023-05-19T07:03:24.051Z,19.40
2023-05-19T07:05:52.690Z,22.08
2023-05-19T07:08:21.945Z,14.25
2023-05-19T07:10:50.169Z,17.08
2023-05-19T07:13:18.080Z,14.80
2023-05-19T07:15:46.310Z,13.13
2023-05-19T07:18:14.250Z,17.80
2023-05-19T07:20:42.631Z,14.40
2023-05-19T07:23:10.618Z,14.45
2023-05-19T07:25:40.134Z,12.63
2023-05-19T07:28:08.052Z,14.98
2023-05-19T07:30:36.235Z,15.00
2023-05-19T07:33:04.277Z,14.02
2023-05-19T07:35:32.522Z,13.50
2023-05-19T07:38:00.692Z,17.30
2023-05-19T07:40:29.210Z,15.77
2023-05-19T07:42:58.640Z,10.27
2023-05-19T07:45:26.874Z,15.75
2023-05-19T07:47:55.514Z,12.85
2023-05-19T07:50:23.798Z,11.43
2023-05-19T07:52:51.817Z,11.77
2023-05-19T07:55:22.682Z,22.60
2023-05-19T07:57:50.808Z,9.88
2023-05-19T08:00:20.962Z,9.77
2023-05-19T08:02:48.961Z,11.00
2023-05-19T08:05:17.270Z,13.50
2023-05-19T08:07:45.262Z,13.68
2023-05-19T08:10:13.492Z,11.70
2023-05-19T08:12:41.584Z,8.23
2023-05-19T08:15:11.648Z,8.23
2023-05-19T08:17:40.957Z,7.05
2023-05-19T08:20:10.518Z,10.32
2023-05-19T08:22:38.439Z,10.57
2023-05-19T08:25:07.468Z,8.75
2023-05-19T08:27:35.563Z,9.70
2023-05-19T08:30:03.813Z,10.27
2023-05-19T08:32:31.969Z,8.30
2023-05-19T08:35:01.633Z,8.80
2023-05-19T08:37:30.044Z,11.38
2023-05-19T08:39:59.224Z,10.27
2023-05-19T08:42:27.164Z,11.15
2023-05-19T08:44:55.424Z,12.68
2023-05-19T08:47:23.636Z,13.68
2023-05-19T08:49:54.253Z,10.82
2023-05-19T08:52:32.397Z,12.43
2023-05-19T08:55:04.513Z,11.00
2023-05-19T08:57:34.154Z,13.35
2023-05-19T09:00:02.453Z,11.73
2023-05-19T09:02:30.893Z,13.23
2023-05-19T09:04:59.365Z,11.25
2023-05-19T09:07:30.479Z,11.43
2023-05-19T09:09:59.519Z,11.35
2023-05-19T09:12:28.130Z,13.30
2023-05-19T09:14:57.841Z,13.90
2023-05-19T09:17:25.832Z,14.40
2023-05-19T09:19:54.120Z,14.63
2023-05-19T09:22:22.250Z,14.45
2023-05-19T09:24:52.774Z,13.85
2023-05-19T09:27:23.369Z,14.63
2023-05-19T09:29:51.771Z,17.67
2023-05-19T09:32:26.942Z,13.82
2023-05-19T09:34:55.785Z,15.80
2023-05-19T09:37:25.169Z,13.10
2023-05-19T09:39:55.004Z,12.68
2023-05-19T09:42:27.161Z,11.88
2023-05-19T09:45:01.615Z,14.05
2023-05-19T09:47:30.569Z,14.02
2023-05-19T09:49:58.757Z,14.15
2023-05-19T09:52:27.337Z,11.63
2023-05-19T09:54:57.842Z,15.48
2023-05-19T09:57:29.237Z,13.48
2023-05-19T09:59:59.284Z,13.23
2023-05-19T10:02:27.312Z,14.27
2023-05-19T10:04:56.374Z,12.57
2023-05-19T10:07:25.792Z,20.77
2023-05-19T10:09:56.764Z,16.33
2023-05-19T10:12:27.375Z,17.85
2023-05-19T10:14:56.351Z,15.40
2023-05-19T10:17:26.433Z,17.00
2023-05-19T10:19:55.796Z,16.23
2023-05-19T10:22:23.733Z,17.52
2023-05-19T10:24:51.920Z,14.05
2023-05-19T10:27:21.627Z,22.67
2023-05-19T10:29:51.327Z,17.05
2023-05-19T10:32:22.275Z,17.33
2023-05-19T10:35:13.750Z,21.08
2023-05-19T10:37:46.615Z,15.98
2023-05-19T10:40:21.943Z,20.02
2023-05-19T10:43:01.273Z,20.23
2023-05-19T10:45:32.188Z,17.85
2023-05-19T10:48:00.554Z,20.55
2023-05-19T10:50:28.826Z,19.10
2023-05-19T10:52:57.941Z,17.33
2023-05-19T10:55:48.790Z,20.40
2023-05-19T10:58:37.870Z,16.27
2023-05-19T11:01:09.082Z,18.67
2023-05-19T11:03:52.180Z,21.98
2023-05-19T11:06:27.795Z,20.85
2023-05-19T11:08:57.982Z,17.63
2023-05-19T11:11:26.534Z,19.90
2023-05-19T11:13:56.623Z,23.33
2023-05-19T11:16:29.123Z,19.35
2023-05-19T11:21:25.669Z,15.50
2023-05-19T11:23:53.907Z,16.48
2023-05-19T11:26:41.181Z,15.38
2023-05-19T11:29:10.649Z,16.88
2023-05-19T11:31:39.293Z,12.95
2023-05-19T11:34:07.828Z,20.52
2023-05-19T11:36:40.011Z,16.10
2023-05-19T11:39:08.488Z,14.25
2023-05-19T11:41:40.398Z,13.20
2023-05-19T11:44:12.767Z,17.23
2023-05-19T11:46:41.459Z,14.30
2023-05-19T11:49:10.611Z,17.85
2023-05-19T11:51:39.280Z,18.92
2023-05-19T11:54:07.378Z,16.83
2023-05-19T11:56:36.732Z,14.57
2023-05-19T11:59:04.802Z,14.38
2023-05-19T12:01:34.830Z,16.33
2023-05-19T12:04:03.139Z,16.85
2023-05-19T12:06:31.759Z,16.08
2023-05-19T12:09:00.878Z,18.20
2023-05-19T12:11:29.823Z,19.52
2023-05-19T12:14:00.225Z,20.55
2023-05-19T12:16:35.591Z,14.65
2023-05-19T12:19:06.185Z,18.77
2023-05-19T12:21:34.909Z,15.50
2023-05-19T12:24:03.390Z,16.88
2023-05-19T12:26:31.589Z,21.60
2023-05-19T12:29:00.046Z,20.02
2023-05-19T12:31:28.330Z,22.08
2023-05-19T12:33:58.257Z,15.20
2023-05-19T12:36:27.099Z,19.77
2023-05-19T12:38:55.429Z,21.13
2023-05-19T12:41:27.195Z,15.82
2023-05-19T12:43:55.901Z,19.13
2023-05-19T12:46:24.191Z,17.92
2023-05-19T12:48:52.292Z,16.02
2023-05-19T12:51:22.413Z,16.42
2023-05-19T12:53:51.507Z,20.48
2023-05-19T12:56:19.764Z,25.58
2023-05-19T12:58:47.729Z,17.58
2023-05-19T13:01:20.030Z,16.90
2023-05-19T13:03:48.534Z,18.88
2023-05-19T13:06:16.939Z,15.98
2023-05-19T13:08:48.222Z,17.00
2023-05-19T13:11:16.511Z,19.33
2023-05-19T13:13:44.513Z,14.73
2023-05-19T13:16:13.433Z,14.52
2023-05-19T13:18:41.507Z,21.30
2023-05-19T13:21:10.146Z,14.88
2023-05-19T13:23:38.330Z,16.63
2023-05-19T13:26:07.914Z,26.25
2023-05-19T13:28:35.880Z,15.57
2023-05-19T13:31:04.189Z,15.02
2023-05-19T13:33:32.162Z,15.27
2023-05-19T13:36:00.326Z,17.25
2023-05-19T13:38:30.343Z,19.00
2023-05-19T13:40:58.510Z,18.70
2023-05-19T13:43:27.759Z,19.65
2023-05-19T13:45:56.244Z,19.52
2023-05-19T13:48:24.511Z,16.83
2023-05-19T13:50:55.466Z,22.30
2023-05-19T13:53:23.757Z,19.33
2023-05-19T13:55:52.953Z,22.25
2023-05-19T13:58:20.823Z,20.77
2023-05-19T14:00:54.446Z,21.63
2023-05-19T14:03:22.438Z,18.67
2023-05-19T14:05:50.783Z,25.95
2023-05-19T14:08:19.518Z,24.45
2023-05-19T14:10:48.104Z,23.70
2023-05-19T14:13:30.995Z,16.23
2023-05-19T14:16:01.900Z,18.23
2023-05-19T14:18:29.911Z,18.77
2023-05-19T14:20:58.062Z,18.92
2023-05-19T14:23:25.980Z,15.90
2023-05-19T14:25:54.421Z,22.48
2023-05-19T14:28:22.349Z,16.52
2023-05-19T14:30:51.033Z,20.35
2023-05-19T14:33:21.255Z,16.65
2023-05-19T14:35:49.526Z,20.77
2023-05-19T14:38:17.437Z,20.33
2023-05-19T14:40:45.797Z,25.88
2023-05-19T14:43:13.702Z,20.60
2023-05-19T14:45:42.073Z,20.58
2023-05-19T14:48:11.728Z,25.98
2023-05-19T14:50:41.363Z,22.38
2023-05-19T14:53:09.448Z,19.48
2023-05-19T14:55:37.814Z,18.88
2023-05-19T14:58:15.804Z,21.48
2023-05-19T15:00:48.959Z,24.38
2023-05-19T15:03:17.161Z,20.95
2023-05-19T15:05:46.731Z,23.23
2023-05-19T15:08:14.870Z,23.45
2023-05-19T15:10:43.044Z,24.92
2023-05-19T15:13:11.873Z,25.10
2023-05-19T15:15:40.364Z,24.38
2023-05-19T15:18:08.322Z,25.73
2023-05-19T15:20:36.850Z,28.65
2023-05-19T15:23:06.485Z,34.28
2023-05-19T15:25:34.694Z,24.52
2023-05-19T15:28:02.863Z,26.27
2023-05-19T15:30:31.408Z,33.80
2023-05-19T15:32:59.433Z,27.77
2023-05-19T15:35:27.733Z,29.95
2023-05-19T15:37:56.399Z,24.27
2023-05-19T15:40:26.375Z,21.85
2023-05-19T15:42:54.260Z,28.77
2023-05-19T15:45:22.936Z,21.83
2023-05-19T15:47:50.880Z,23.17
2023-05-19T15:50:19.244Z,25.67
2023-05-19T15:52:47.263Z,30.80
2023-05-19T15:55:15.611Z,29.23
2023-05-19T15:57:44.843Z,25.23
2023-05-19T16:00:14.214Z,25.30
2023-05-19T16:02:42.751Z,27.05
2023-05-19T16:05:11.176Z,26.45
2023-05-19T16:07:39.221Z,22.63
2023-05-19T16:10:08.297Z,32.63
2023-05-19T16:12:36.551Z,37.55
2023-05-19T16:15:07.384Z,32.53
2023-05-19T16:17:35.654Z,27.63
2023-05-19T16:20:04.405Z,19.95
2023-05-19T16:22:32.597Z,19.83
2023-05-19T16:25:00.765Z,24.83
2023-05-19T16:27:28.669Z,23.48
2023-05-19T16:29:56.958Z,21.17
2023-05-19T16:32:26.243Z,22.42
2023-05-19T16:34:54.468Z,26.77
2023-05-19T16:37:22.406Z,25.20
2023-05-19T16:39:50.632Z,27.75
2023-05-19T16:42:18.532Z,23.67
2023-05-19T16:44:46.965Z,24.08
2023-05-19T16:47:17.995Z,22.33
2023-05-19T16:49:47.514Z,39.33
2023-05-19T16:52:15.421Z,33.35
2023-05-19T16:54:43.754Z,42.50
2023-05-19T16:57:14.263Z,32.63
2023-05-19T16:59:42.639Z,32.25
2023-05-19T17:02:10.640Z,36.22
2023-05-19T17:04:39.188Z,30.83
2023-05-19T17:07:08.513Z,29.20
2023-05-19T17:09:36.681Z,28.60
2023-05-19T17:12:05.365Z,23.63
2023-05-19T17:14:33.537Z,24.90
2023-05-19T17:17:01.764Z,28.27
2023-05-19T17:19:30.230Z,26.05
2023-05-19T17:21:58.377Z,35.10
2023-05-19T17:24:28.808Z,28.75
2023-05-19T17:26:56.825Z,30.45
2023-05-19T17:29:26.814Z,29.27
2023-05-19T17:31:55.407Z,31.02
2023-05-19T17:34:23.772Z,27.83
2023-05-19T17:36:51.742Z,30.70
2023-05-19T17:39:20.778Z,31.70
2023-05-19T17:41:50.169Z,34.40
2023-05-19T17:44:18.372Z,33.53
2023-05-19T17:46:46.340Z,31.08
2023-05-19T17:49:15.301Z,38.03
2023-05-19T17:51:43.890Z,37.83
2023-05-19T17:54:12.399Z,37.58
2023-05-19T17:56:43.405Z,34.03
2023-05-19T17:59:13.396Z,34.37
2023-05-19T18:01:41.795Z,37.35
2023-05-19T18:04:12.130Z,39.35
2023-05-19T18:06:42.166Z,37.28
2023-05-19T18:09:11.090Z,34.92
2023-05-19T18:11:39.149Z,40.47
2023-05-19T18:14:07.465Z,41.75
2023-05-19T18:16:36.872Z,36.25
2023-05-19T18:19:05.165Z,34.92
2023-05-19T18:21:33.638Z,39.85
2023-05-19T18:24:03.014Z,33.72
2023-05-19T18:26:31.134Z,34.47
2023-05-19T18:29:02.632Z,33.13
2023-05-19T18:31:30.611Z,29.73
2023-05-19T18:34:00.258Z,39.83
2023-05-19T18:36:28.199Z,31.92
2023-05-19T18:38:58.124Z,31.58
2023-05-19T18:41:26.236Z,35.05
2023-05-19T18:43:54.669Z,34.90
2023-05-19T18:46:22.618Z,31.33
2023-05-19T18:48:51.043Z,34.90
2023-05-19T18:51:21.690Z,36.63
2023-05-19T18:53:50.645Z,35.80
2023-05-19T18:56:24.797Z,35.30
2023-05-19T18:58:53.259Z,38.97
2023-05-19T19:01:21.354Z,42.75
2023-05-19T19:03:49.715Z,42.05
2023-05-19T19:06:18.028Z,44.47
2023-05-19T19:08:47.994Z,40.03
2023-05-19T19:11:15.935Z,44.15
2023-05-19T19:13:44.547Z,42.03
2023-05-19T19:16:12.817Z,38.90
2023-05-19T19:18:41.328Z,42.88
2023-05-19T19:21:09.334Z,45.60
2023-05-19T19:23:37.645Z,40.75
2023-05-19T19:26:08.563Z,45.47
2023-05-19T19:28:36.965Z,45.23
2023-05-19T19:31:04.983Z,51.00
2023-05-19T19:33:33.205Z,47.03
2023-05-19T19:36:01.337Z,44.63
2023-05-19T19:38:29.575Z,42.53
2023-05-19T19:40:57.474Z,45.08
2023-05-19T19:43:27.399Z,39.50
2023-05-19T19:46:00.737Z,47.97
2023-05-19T19:48:29.441Z,41.65
2023-05-19T19:50:57.888Z,40.90
2023-05-19T19:53:26.211Z,45.60
2023-05-19T19:55:58.683Z,46.47
2023-05-19T19:58:28.885Z,47.97
2023-05-19T20:00:58.211Z,45.50
2023-05-19T20:03:26.999Z,44.60
2023-05-19T20:05:56.390Z,45.38
2023-05-19T20:08:25.174Z,46.50
2023-05-19T20:10:53.403Z,49.85
2023-05-19T20:13:21.658Z,52.83
2023-05-19T20:15:51.095Z,51.38
2023-05-19T20:18:19.415Z,49.75
2023-05-19T20:20:47.490Z,56.50
2023-05-19T20:23:16.170Z,53.63
2023-05-19T20:25:58.954Z,56.08
2023-05-19T20:28:35.002Z,52.08
2023-05-19T20:31:04.392Z,52.30
2023-05-19T20:33:32.614Z,47.00
2023-05-19T20:36:00.548Z,51.25
2023-05-19T20:38:28.735Z,48.35
2023-05-19T20:40:56.611Z,44.53
2023-05-19T20:43:25.354Z,46.60
2023-05-19T20:45:53.373Z,46.47
2023-05-19T20:48:22.957Z,46.15
2023-05-19T20:50:51.177Z,50.03
2023-05-19T20:53:19.854Z,56.45
2023-05-19T20:55:47.749Z,65.35
2023-05-19T20:58:15.921Z,58.00
2023-05-19T21:00:43.961Z,61.80
2023-05-19T21:03:12.409Z,59.60
2023-05-19T21:05:41.804Z,72.18
2023-05-19T21:08:12.798Z,71.32
2023-05-19T21:10:40.920Z,69.70
2023-05-19T21:13:09.192Z,72.15
2023-05-19T21:15:37.297Z,69.25
2023-05-19T21:18:05.583Z,64.88
2023-05-19T21:20:33.970Z,68.18
2023-05-19T21:23:03.742Z,69.10
2023-05-19T21:25:31.944Z,63.35
2023-05-19T21:28:00.260Z,60.20
2023-05-19T21:30:28.718Z,62.72
2023-05-19T21:32:57.063Z,60.42
2023-05-19T21:35:25.110Z,66.50
2023-05-19T21:37:53.356Z,61.45
2023-05-19T21:40:22.775Z,57.88
2023-05-19T21:42:51.003Z,58.75
2023-05-19T21:45:19.273Z,65.10
2023-05-19T21:47:47.616Z,70.00
2023-05-19T21:50:17.449Z,70.22
2023-05-19T21:52:45.870Z,71.03
2023-05-19T21:55:13.865Z,70.47
2023-05-19T21:57:43.415Z,86.60
2023-05-19T22:00:13.296Z,75.15
2023-05-19T22:02:41.958Z,82.18
2023-05-19T22:05:10.936Z,70.55
2023-05-19T22:07:39.520Z,80.40
2023-05-19T22:10:08.173Z,88.18
2023-05-19T22:12:36.579Z,79.53
2023-05-19T22:15:06.643Z,82.07
2023-05-19T22:17:34.913Z,94.00
2023-05-19T22:20:02.939Z,86.95
2023-05-19T22:22:31.218Z,85.00
2023-05-19T22:24:59.301Z,87.53
2023-05-19T22:27:27.529Z,81.13
2023-05-19T22:29:55.567Z,89.20
2023-05-19T22:32:25.154Z,88.20
2023-05-19T22:34:53.163Z,84.35
2023-05-19T22:37:23.489Z,84.13
2023-05-19T22:39:51.525Z,90.32
2023-05-19T22:42:20.075Z,90.80
2023-05-19T22:44:47.990Z,94.68
2023-05-19T22:47:16.348Z,94.32
2023-05-19T22:49:45.779Z,96.38
2023-05-19T22:52:14.250Z,95.28
2023-05-19T22:54:42.276Z,100.47
2023-05-19T22:57:10.550Z,105.68
2023-05-19T22:59:39.934Z,106.88
2023-05-19T23:02:08.236Z,101.85
2023-05-19T23:04:36.414Z,105.30
2023-05-19T23:07:06.207Z,96.78
2023-05-19T23:09:34.115Z,73.75
2023-05-19T23:12:02.307Z,68.18
2023-05-19T23:14:31.493Z,69.70
2023-05-19T23:16:59.734Z,70.53
2023-05-19T23:19:29.036Z,73.32
2023-05-19T23:21:57.323Z,73.30
2023-05-19T23:24:26.590Z,70.97
2023-05-19T23:26:55.236Z,77.75
2023-05-19T23:29:23.334Z,73.10
2023-05-19T23:31:51.609Z,63.90
2023-05-19T23:34:19.637Z,60.78
2023-05-19T23:36:47.896Z,52.63
2023-05-19T23:39:15.804Z,55.83
2023-05-19T23:41:45.442Z,62.70
2023-05-19T23:44:13.441Z,52.60
2023-05-19T23:46:41.971Z,57.72
2023-05-19T23:49:09.976Z,62.03
2023-05-19T23:51:38.117Z,60.13
2023-05-19T23:54:06.011Z,58.47
2023-05-19T23:56:34.189Z,55.65
2023-05-19T23:59:03.589Z,51.78
